createdAt,value
2023-01-15T00:00:50.466Z,995.02
2023-01-15T00:01:50.454Z,995.04
2023-01-15T00:02:50.496Z,995.07
2023-01-15T00:03:50.507Z,995.13
2023-01-15T00:04:50.434Z,995.10
2023-01-15T00:05:50.413Z,995.15
2023-01-15T00:06:50.397Z,995.20
2023-01-15T00:07:50.385Z,995.18
2023-01-15T00:08:50.374Z,995.18
2023-01-15T00:09:50.369Z,995.19
2023-01-15T00:10:50.356Z,995.11
2023-01-15T00:11:50.345Z,995.19
2023-01-15T00:12:50.337Z,995.20
2023-01-15T00:13:50.342Z,995.30
2023-01-15T00:14:50.340Z,995.22
2023-01-15T00:15:50.326Z,995.25
2023-01-15T00:16:50.290Z,995.23
2023-01-15T00:17:50.278Z,995.26
2023-01-15T00:18:50.276Z,995.33
2023-01-15T00:19:50.272Z,995.38
2023-01-15T00:20:50.247Z,995.40
2023-01-15T00:21:50.232Z,995.40
2023-01-15T00:22:50.227Z,995.39
2023-01-15T00:23:50.221Z,995.45
2023-01-15T00:24:50.231Z,995.47
2023-01-15T00:25:50.186Z,995.47
2023-01-15T00:26:50.186Z,995.44
2023-01-15T00:27:50.169Z,995.48
2023-01-15T00:28:50.158Z,995.48
2023-01-15T00:29:50.157Z,995.49
2023-01-15T00:30:50.178Z,995.61
2023-01-15T00:31:50.126Z,995.65
2023-01-15T00:32:50.119Z,995.68
2023-01-15T00:33:50.098Z,995.60
2023-01-15T00:34:50.109Z,995.59
2023-01-15T00:35:50.080Z,995.61
2023-01-15T00:36:50.071Z,995.66
2023-01-15T00:37:50.066Z,995.67
2023-01-15T00:38:50.053Z,995.71
2023-01-15T00:39:50.040Z,995.71
2023-01-15T00:40:50.029Z,995.74
2023-01-15T00:41:50.020Z,995.70
2023-01-15T00:42:54.627Z,995.76
2023-01-15T00:43:49.995Z,995.83
2023-01-15T00:44:50.007Z,995.81
2023-01-15T00:45:49.961Z,995.75
2023-01-15T00:46:50.028Z,995.68
2023-01-15T00:47:49.950Z,995.69
2023-01-15T00:48:49.941Z,995.69
2023-01-15T00:49:49.942Z,995.71
2023-01-15T00:50:49.921Z,995.77
2023-01-15T00:51:49.971Z,995.77
2023-01-15T00:52:49.903Z,995.75
2023-01-15T00:53:49.910Z,995.70
2023-01-15T00:54:49.886Z,995.77
2023-01-15T00:55:49.860Z,995.80
2023-01-15T00:56:49.858Z,995.80
2023-01-15T00:57:49.838Z,995.78
2023-01-15T00:58:49.830Z,995.79
2023-01-15T00:59:49.831Z,995.84
2023-01-15T01:00:49.847Z,995.87
2023-01-15T01:01:49.860Z,995.84
2023-01-15T01:02:49.791Z,995.86
2023-01-15T01:03:49.775Z,995.81
2023-01-15T01:04:49.771Z,995.81
2023-01-15T01:05:49.752Z,995.76
2023-01-15T01:06:49.741Z,995.76
2023-01-15T01:07:49.746Z,995.72
2023-01-15T01:08:49.731Z,995.74
2023-01-15T01:09:49.715Z,995.66
2023-01-15T01:10:49.701Z,995.68
2023-01-15T01:11:49.683Z,995.73
2023-01-15T01:12:49.676Z,995.69
2023-01-15T01:13:49.664Z,995.70
2023-01-15T01:14:49.673Z,995.72
2023-01-15T01:15:49.684Z,995.72
2023-01-15T01:16:49.643Z,995.68
2023-01-15T01:17:49.624Z,995.69
2023-01-15T01:18:49.614Z,995.66
2023-01-15T01:19:49.613Z,995.67
2023-01-15T01:20:49.604Z,995.69
2023-01-15T01:21:49.584Z,995.67
2023-01-15T01:22:49.599Z,995.65
2023-01-15T01:23:49.575Z,995.68
2023-01-15T01:24:49.558Z,995.71
2023-01-15T01:25:49.536Z,995.67
2023-01-15T01:26:49.534Z,995.67
2023-01-15T01:27:49.506Z,995.68
2023-01-15T01:28:49.509Z,995.65
2023-01-15T01:29:49.507Z,995.74
2023-01-15T01:30:49.477Z,995.78
2023-01-15T01:31:49.538Z,995.82
2023-01-15T01:32:49.460Z,995.80
2023-01-15T01:33:49.446Z,995.79
2023-01-15T01:34:49.444Z,995.78
2023-01-15T01:35:49.434Z,995.75
2023-01-15T01:36:49.425Z,995.75
2023-01-15T01:37:49.416Z,995.76
2023-01-15T01:38:49.399Z,995.72
2023-01-15T01:39:49.387Z,995.73
2023-01-15T01:40:49.368Z,995.74
2023-01-15T01:41:49.394Z,995.74
2023-01-15T01:42:49.346Z,995.73
2023-01-15T01:43:49.349Z,995.74
2023-01-15T01:44:49.339Z,995.78
2023-01-15T01:45:49.383Z,995.78
2023-01-15T01:46:49.321Z,995.71
2023-01-15T01:47:49.304Z,995.70
2023-01-15T01:48:49.277Z,995.65
2023-01-15T01:49:49.299Z,995.70
2023-01-15T01:50:49.267Z,995.68
2023-01-15T01:51:49.275Z,995.67
2023-01-15T01:52:49.261Z,995.71
2023-01-15T01:53:49.237Z,995.70
2023-01-15T01:54:49.324Z,995.69
2023-01-15T01:55:49.221Z,995.71
2023-01-15T01:56:49.246Z,995.65
2023-01-15T01:57:49.189Z,995.62
2023-01-15T01:58:49.179Z,995.60
2023-01-15T01:59:49.229Z,995.67
2023-01-15T02:00:49.194Z,995.72
2023-01-15T02:01:49.274Z,995.64
2023-01-15T02:02:49.127Z,995.63
2023-01-15T02:03:49.125Z,995.56
2023-01-15T02:04:49.109Z,995.50
2023-01-15T02:05:49.114Z,995.51
2023-01-15T02:06:49.110Z,995.52
2023-01-15T02:07:49.084Z,995.55
2023-01-15T02:08:49.073Z,995.57
2023-01-15T02:09:49.063Z,995.60
2023-01-15T02:10:49.051Z,995.52
2023-01-15T02:11:49.066Z,995.50
2023-01-15T02:12:49.019Z,995.47
2023-01-15T02:13:49.020Z,995.48
2023-01-15T02:14:49.016Z,995.51
2023-01-15T02:15:48.999Z,995.48
2023-01-15T02:16:49.010Z,995.48
2023-01-15T02:17:48.970Z,995.47
2023-01-15T02:18:48.973Z,995.50
2023-01-15T02:19:48.950Z,995.51
2023-01-15T02:20:48.940Z,995.48
2023-01-15T02:21:48.954Z,995.44
2023-01-15T02:22:48.933Z,995.48
2023-01-15T02:23:48.931Z,995.42
2023-01-15T02:24:48.898Z,995.43
2023-01-15T02:25:48.909Z,995.42
2023-01-15T02:26:48.904Z,995.46
2023-01-15T02:27:48.870Z,995.47
2023-01-15T02:28:48.864Z,995.43
2023-01-15T02:29:48.882Z,995.47
2023-01-15T02:30:48.832Z,995.47
2023-01-15T02:31:48.916Z,995.52
2023-01-15T02:32:48.811Z,995.49
2023-01-15T02:33:48.819Z,995.40
2023-01-15T02:34:48.844Z,995.41
2023-01-15T02:35:48.807Z,995.46
2023-01-15T02:36:48.781Z,995.42
2023-01-15T02:37:48.776Z,995.39
2023-01-15T02:38:48.752Z,995.38
2023-01-15T02:39:48.760Z,995.39
2023-01-15T02:40:48.732Z,995.40
2023-01-15T02:41:48.746Z,995.42
2023-01-15T02:42:48.756Z,995.37
2023-01-15T02:43:48.703Z,995.40
2023-01-15T02:44:48.698Z,995.43
2023-01-15T02:45:48.707Z,995.43
2023-01-15T02:46:48.658Z,995.41
2023-01-15T02:47:48.659Z,995.41
2023-01-15T02:48:48.637Z,995.41
2023-01-15T02:49:48.655Z,995.41
2023-01-15T02:50:48.625Z,995.45
2023-01-15T02:51:48.603Z,995.47
2023-01-15T02:52:48.592Z,995.49
2023-01-15T02:53:48.584Z,995.51
2023-01-15T02:54:48.591Z,995.53
2023-01-15T02:55:48.565Z,995.50
2023-01-15T02:56:48.552Z,995.47
2023-01-15T02:57:48.551Z,995.41
2023-01-15T02:58:48.533Z,995.35
2023-01-15T02:59:48.553Z,995.33
2023-01-15T03:00:48.535Z,995.32
2023-01-15T03:01:48.641Z,995.39
2023-01-15T03:02:48.564Z,995.43
2023-01-15T03:03:48.474Z,995.37
2023-01-15T03:04:48.492Z,995.41
2023-01-15T03:05:48.455Z,995.39
2023-01-15T03:06:48.434Z,995.42
2023-01-15T03:07:48.435Z,995.44
2023-01-15T03:08:48.415Z,995.47
2023-01-15T03:09:48.419Z,995.40
2023-01-15T03:10:48.412Z,995.48
2023-01-15T03:11:48.394Z,995.50
2023-01-15T03:12:48.377Z,995.48
2023-01-15T03:13:48.367Z,995.51
2023-01-15T03:14:48.685Z,995.48
2023-01-15T03:15:48.412Z,995.53
2023-01-15T03:16:48.398Z,995.54
2023-01-15T03:17:48.328Z,995.57
2023-01-15T03:18:48.306Z,995.60
2023-01-15T03:19:48.316Z,995.61
2023-01-15T03:20:48.287Z,995.60
2023-01-15T03:21:48.300Z,995.59
2023-01-15T03:22:48.267Z,995.55
2023-01-15T03:23:48.268Z,995.55
2023-01-15T03:24:48.261Z,995.58
2023-01-15T03:25:48.236Z,995.53
2023-01-15T03:26:48.228Z,995.51
2023-01-15T03:27:48.230Z,995.56
2023-01-15T03:28:48.218Z,995.59
2023-01-15T03:29:48.226Z,995.59
2023-01-15T03:30:48.244Z,995.56
2023-01-15T03:31:48.188Z,995.60
2023-01-15T03:32:48.166Z,995.65
2023-01-15T03:33:48.161Z,995.62
2023-01-15T03:34:48.163Z,995.59
2023-01-15T03:35:48.192Z,995.61
2023-01-15T03:36:48.117Z,995.61
2023-01-15T03:37:48.220Z,995.63
2023-01-15T03:38:48.099Z,995.60
2023-01-15T03:39:48.255Z,995.56
2023-01-15T03:40:48.078Z,995.58
2023-01-15T03:41:48.102Z,995.56
2023-01-15T03:42:48.050Z,995.57
2023-01-15T03:43:48.052Z,995.54
2023-01-15T03:44:48.038Z,995.53
2023-01-15T03:45:48.039Z,995.44
2023-01-15T03:46:48.011Z,995.46
2023-01-15T03:47:48.001Z,995.39
2023-01-15T03:48:47.982Z,995.33
2023-01-15T03:49:48.005Z,995.29
2023-01-15T03:50:47.979Z,995.32
2023-01-15T03:51:47.958Z,995.22
2023-01-15T03:52:47.944Z,995.15
2023-01-15T03:53:47.957Z,995.20
2023-01-15T03:54:47.928Z,995.17
2023-01-15T03:55:47.922Z,995.18
2023-01-15T03:56:47.902Z,995.14
2023-01-15T03:57:47.900Z,995.19
2023-01-15T03:58:47.879Z,995.11
2023-01-15T03:59:47.882Z,995.07
2023-01-15T04:00:47.863Z,995.07
2023-01-15T04:01:47.957Z,995.10
2023-01-15T04:02:47.840Z,995.01
2023-01-15T04:03:47.827Z,995.13
2023-01-15T04:04:47.830Z,995.07
2023-01-15T04:05:47.807Z,995.05
2023-01-15T04:06:47.808Z,995.05
2023-01-15T04:07:47.784Z,995.05
2023-01-15T04:08:47.782Z,995.15
2023-01-15T04:09:47.763Z,995.10
2023-01-15T04:10:47.761Z,995.08
2023-01-15T04:11:47.741Z,995.17
2023-01-15T04:12:47.743Z,995.06
2023-01-15T04:13:47.713Z,994.99
2023-01-15T04:14:47.728Z,994.98
2023-01-15T04:15:47.718Z,995.04
2023-01-15T04:16:47.684Z,995.00
2023-01-15T04:17:47.681Z,995.09
2023-01-15T04:18:47.663Z,995.11
2023-01-15T04:19:47.654Z,995.13
2023-01-15T04:20:47.648Z,995.12
2023-01-15T04:21:47.639Z,995.13
2023-01-15T04:22:47.633Z,995.14
2023-01-15T04:23:47.618Z,995.15
2023-01-15T04:24:47.612Z,995.09
2023-01-15T04:25:47.598Z,995.12
2023-01-15T04:26:47.606Z,995.16
2023-01-15T04:27:47.575Z,995.09
2023-01-15T04:28:47.577Z,995.04
2023-01-15T04:29:47.589Z,995.08
2023-01-15T04:30:47.577Z,995.11
2023-01-15T04:31:47.552Z,995.13
2023-01-15T04:32:47.516Z,995.02
2023-01-15T04:33:47.524Z,995.06
2023-01-15T04:34:47.526Z,995.07
2023-01-15T04:35:47.522Z,995.08
2023-01-15T04:36:47.474Z,995.10
2023-01-15T04:37:47.485Z,995.10
2023-01-15T04:38:47.457Z,995.12
2023-01-15T04:39:47.463Z,995.08
2023-01-15T04:40:47.435Z,995.09
2023-01-15T04:41:47.446Z,995.06
2023-01-15T04:42:47.415Z,995.04
2023-01-15T04:43:47.417Z,995.18
2023-01-15T04:44:47.407Z,995.21
2023-01-15T04:45:47.386Z,995.22
2023-01-15T04:46:47.376Z,995.31
2023-01-15T04:47:47.367Z,995.21
2023-01-15T04:48:47.354Z,995.25
2023-01-15T04:49:47.348Z,995.18
2023-01-15T04:50:47.335Z,995.08
2023-01-15T04:51:47.306Z,995.11
2023-01-15T04:52:47.299Z,995.05
2023-01-15T04:53:47.289Z,995.08
2023-01-15T04:54:47.277Z,995.09
2023-01-15T04:55:47.386Z,995.10
2023-01-15T04:56:47.257Z,995.16
2023-01-15T04:57:47.239Z,995.13
2023-01-15T04:58:47.227Z,995.17
2023-01-15T04:59:47.227Z,995.20
2023-01-15T05:00:47.212Z,995.27
2023-01-15T05:02:02.066Z,995.20
2023-01-15T05:02:48.213Z,995.18
2023-01-15T05:03:47.179Z,995.17
2023-01-15T05:04:47.224Z,995.18
2023-01-15T05:05:47.161Z,995.19
2023-01-15T05:06:47.140Z,995.22
2023-01-15T05:07:47.140Z,995.25
2023-01-15T05:08:47.119Z,995.30
2023-01-15T05:09:47.131Z,995.19
2023-01-15T05:10:47.099Z,995.25
2023-01-15T05:11:47.102Z,995.17
2023-01-15T05:12:47.070Z,995.20
2023-01-15T05:13:47.084Z,995.24
2023-01-15T05:14:47.072Z,995.27
2023-01-15T05:15:47.089Z,995.26
2023-01-15T05:16:47.045Z,995.25
2023-01-15T05:17:47.030Z,995.17
2023-01-15T05:18:47.033Z,995.11
2023-01-15T05:19:47.024Z,995.12
2023-01-15T05:20:47.001Z,995.17
2023-01-15T05:21:46.987Z,995.22
2023-01-15T05:22:46.972Z,995.18
2023-01-15T05:23:46.973Z,995.19
2023-01-15T05:24:46.953Z,995.23
2023-01-15T05:25:46.944Z,995.12
2023-01-15T05:26:46.931Z,995.13
2023-01-15T05:27:46.923Z,995.12
2023-01-15T05:28:46.903Z,995.09
2023-01-15T05:29:47.049Z,995.09
2023-01-15T05:30:46.908Z,995.16
2023-01-15T05:31:46.887Z,995.15
2023-01-15T05:32:46.861Z,995.06
2023-01-15T05:33:46.853Z,995.19
2023-01-15T05:34:46.855Z,995.18
2023-01-15T05:35:46.832Z,995.19
2023-01-15T05:36:46.814Z,995.15
2023-01-15T05:37:46.816Z,995.25
2023-01-15T05:38:46.803Z,995.24
2023-01-15T05:39:46.799Z,995.27
2023-01-15T05:40:46.780Z,995.32
2023-01-15T05:41:46.779Z,995.33
2023-01-15T05:42:46.753Z,995.24
2023-01-15T05:43:46.744Z,995.15
2023-01-15T05:44:46.745Z,995.21
2023-01-15T05:45:46.724Z,995.31
2023-01-15T05:46:46.726Z,995.34
2023-01-15T05:47:46.704Z,995.36
2023-01-15T05:48:46.684Z,995.24
2023-01-15T05:49:46.695Z,995.36
2023-01-15T05:50:46.666Z,995.35
2023-01-15T05:51:46.654Z,995.36
2023-01-15T05:52:46.647Z,995.47
2023-01-15T05:53:46.638Z,995.48
2023-01-15T05:54:46.634Z,995.40
2023-01-15T05:55:46.615Z,995.51
2023-01-15T05:56:46.617Z,995.57
2023-01-15T05:57:46.597Z,995.55
2023-01-15T05:58:46.577Z,995.57
2023-01-15T05:59:46.587Z,995.70
2023-01-15T06:00:46.556Z,995.59
2023-01-15T06:01:46.567Z,995.63
2023-01-15T06:02:46.583Z,995.68
2023-01-15T06:03:46.637Z,995.66
2023-01-15T06:04:46.536Z,995.72
2023-01-15T06:05:46.509Z,995.72
2023-01-15T06:06:46.497Z,995.68
2023-01-15T06:07:46.488Z,995.65
2023-01-15T06:08:46.467Z,995.74
2023-01-15T06:09:46.471Z,995.74
2023-01-15T06:10:46.446Z,995.77
2023-01-15T06:11:46.440Z,995.76
2023-01-15T06:12:46.427Z,995.71
2023-01-15T06:13:46.436Z,995.67
2023-01-15T06:14:46.435Z,995.68
2023-01-15T06:15:46.436Z,995.73
2023-01-15T06:16:46.388Z,995.76
2023-01-15T06:17:46.388Z,995.76
2023-01-15T06:18:46.367Z,995.75
2023-01-15T06:19:46.369Z,995.73
2023-01-15T06:20:46.344Z,995.71
2023-01-15T06:21:46.331Z,995.68
2023-01-15T06:22:46.318Z,995.57
2023-01-15T06:23:46.323Z,995.57
2023-01-15T06:24:46.318Z,995.58
2023-01-15T06:25:46.299Z,995.61
2023-01-15T06:26:46.291Z,995.56
2023-01-15T06:27:46.269Z,995.68
2023-01-15T06:28:46.283Z,995.69
2023-01-15T06:29:46.259Z,995.71
2023-01-15T06:30:46.239Z,995.68
2023-01-15T06:31:46.241Z,995.74
2023-01-15T06:32:46.267Z,995.76
2023-01-15T06:33:46.202Z,995.63
2023-01-15T06:34:46.262Z,995.68
2023-01-15T06:35:46.194Z,995.69
2023-01-15T06:36:46.183Z,995.66
2023-01-15T06:37:46.176Z,995.66
2023-01-15T06:38:46.161Z,995.69
2023-01-15T06:39:46.148Z,995.70
2023-01-15T06:40:46.126Z,995.74
2023-01-15T06:41:46.136Z,995.76
2023-01-15T06:42:46.100Z,995.66
2023-01-15T06:43:46.103Z,995.75
2023-01-15T06:44:46.092Z,995.75
2023-01-15T06:45:46.071Z,995.82
2023-01-15T06:46:46.070Z,995.75
2023-01-15T06:47:46.051Z,995.80
2023-01-15T06:48:46.044Z,995.82
2023-01-15T06:49:46.052Z,995.85
2023-01-15T06:50:46.022Z,995.88
2023-01-15T06:51:46.001Z,996.07
2023-01-15T06:52:45.994Z,995.97
2023-01-15T06:53:45.991Z,995.97
2023-01-15T06:54:45.993Z,995.95
2023-01-15T06:55:45.973Z,996.02
2023-01-15T06:56:45.951Z,995.96
2023-01-15T06:57:46.003Z,995.95
2023-01-15T06:58:45.942Z,996.02
2023-01-15T06:59:45.942Z,996.07
2023-01-15T07:00:45.957Z,996.05
2023-01-15T07:01:45.949Z,996.01
2023-01-15T07:02:45.884Z,995.94
2023-01-15T07:03:45.897Z,996.02
2023-01-15T07:04:45.903Z,996.01
2023-01-15T07:05:45.923Z,995.97
2023-01-15T07:06:45.852Z,995.98
2023-01-15T07:07:45.908Z,996.01
2023-01-15T07:08:45.823Z,996.02
2023-01-15T07:09:45.877Z,996.00
2023-01-15T07:10:45.803Z,996.04
2023-01-15T07:11:45.896Z,996.02
2023-01-15T07:12:45.776Z,996.01
2023-01-15T07:13:45.905Z,995.96
2023-01-15T07:14:45.778Z,995.97
2023-01-15T07:15:45.857Z,996.06
2023-01-15T07:16:45.734Z,996.01
2023-01-15T07:17:45.784Z,996.10
2023-01-15T07:18:45.704Z,996.09
2023-01-15T07:19:45.821Z,996.08
2023-01-15T07:20:45.695Z,996.06
2023-01-15T07:21:45.686Z,996.02
2023-01-15T07:22:45.680Z,996.06
2023-01-15T07:23:45.666Z,996.04
2023-01-15T07:24:45.656Z,996.10
2023-01-15T07:25:45.645Z,996.10
2023-01-15T07:26:45.847Z,996.05
2023-01-15T07:27:45.620Z,996.09
2023-01-15T07:28:45.622Z,996.13
2023-01-15T07:29:45.623Z,996.20
2023-01-15T07:30:45.587Z,996.23
2023-01-15T07:31:45.660Z,996.31
2023-01-15T07:32:45.570Z,996.26
2023-01-15T07:33:45.551Z,996.37
2023-01-15T07:34:45.557Z,996.36
2023-01-15T07:35:45.530Z,996.31
2023-01-15T07:36:45.521Z,996.38
2023-01-15T07:37:45.507Z,996.31
2023-01-15T07:38:45.508Z,996.39
2023-01-15T07:39:45.519Z,996.35
2023-01-15T07:40:45.486Z,996.29
2023-01-15T07:41:45.474Z,996.30
2023-01-15T07:42:45.463Z,996.25
2023-01-15T07:43:45.437Z,996.27
2023-01-15T07:44:45.473Z,996.23
2023-01-15T07:45:45.455Z,996.23
2023-01-15T07:46:45.415Z,996.35
2023-01-15T07:47:45.404Z,996.33
2023-01-15T07:48:45.388Z,996.40
2023-01-15T07:49:45.393Z,996.40
2023-01-15T07:50:45.370Z,996.30
2023-01-15T07:51:45.351Z,996.37
2023-01-15T07:52:45.346Z,996.34
2023-01-15T07:53:45.327Z,996.38
2023-01-15T07:54:45.369Z,996.41
2023-01-15T07:55:45.309Z,996.40
2023-01-15T07:56:45.317Z,996.48
2023-01-15T07:57:45.287Z,996.49
2023-01-15T07:58:45.279Z,996.50
2023-01-15T07:59:45.278Z,996.45
2023-01-15T08:00:45.293Z,996.52
2023-01-15T08:01:45.292Z,996.49
2023-01-15T08:02:45.238Z,996.49
2023-01-15T08:03:45.250Z,996.50
2023-01-15T08:04:45.230Z,996.51
2023-01-15T08:05:45.199Z,996.57
2023-01-15T08:06:45.190Z,996.55
2023-01-15T08:07:45.170Z,996.54
2023-01-15T08:08:45.191Z,996.61
2023-01-15T08:09:45.161Z,996.61
2023-01-15T08:10:45.150Z,996.66
2023-01-15T08:11:45.150Z,996.77
2023-01-15T08:12:45.122Z,996.78
2023-01-15T08:13:45.121Z,996.76
2023-01-15T08:14:45.121Z,996.82
2023-01-15T08:15:45.154Z,996.84
2023-01-15T08:16:45.209Z,996.87
2023-01-15T08:17:45.083Z,996.88
2023-01-15T08:18:45.060Z,996.88
2023-01-15T08:19:45.072Z,996.93
2023-01-15T08:20:47.051Z,996.93
2023-01-15T08:21:45.030Z,996.90
2023-01-15T08:22:45.021Z,996.95
2023-01-15T08:23:45.011Z,996.97
2023-01-15T08:24:45.003Z,996.88
2023-01-15T08:25:44.999Z,996.90
2023-01-15T08:26:45.090Z,996.92
2023-01-15T08:27:44.984Z,996.90
2023-01-15T08:28:44.954Z,996.85
2023-01-15T08:29:44.961Z,996.89
2023-01-15T08:30:44.925Z,996.94
2023-01-15T08:31:45.074Z,996.96
2023-01-15T08:32:44.913Z,997.06
2023-01-15T08:33:44.905Z,997.04
2023-01-15T08:34:44.894Z,997.14
2023-01-15T08:35:44.888Z,997.11
2023-01-15T08:36:44.921Z,997.13
2023-01-15T08:37:44.865Z,997.18
2023-01-15T08:38:44.844Z,997.23
2023-01-15T08:39:44.842Z,997.18
2023-01-15T08:40:44.823Z,997.24
2023-01-15T08:41:44.816Z,997.30
2023-01-15T08:42:44.797Z,997.26
2023-01-15T08:43:44.805Z,997.27
2023-01-15T08:44:44.796Z,997.29
2023-01-15T08:45:44.782Z,997.37
2023-01-15T08:46:44.753Z,997.28
2023-01-15T08:47:44.755Z,997.30
2023-01-15T08:48:44.733Z,997.23
2023-01-15T08:49:44.737Z,997.23
2023-01-15T08:50:44.717Z,997.23
2023-01-15T08:51:44.706Z,997.19
2023-01-15T08:52:44.685Z,997.17
2023-01-15T08:53:44.686Z,997.20
2023-01-15T08:54:44.676Z,997.23
2023-01-15T08:55:44.669Z,997.24
2023-01-15T08:56:44.657Z,997.24
2023-01-15T08:57:44.666Z,997.25
2023-01-15T08:58:44.626Z,997.27
2023-01-15T08:59:44.652Z,997.23
2023-01-15T09:00:44.615Z,997.22
2023-01-15T09:01:44.685Z,997.25
2023-01-15T09:02:44.587Z,997.22
2023-01-15T09:03:44.587Z,997.24
2023-01-15T09:04:44.647Z,997.27
2023-01-15T09:05:44.558Z,997.26
2023-01-15T09:06:44.561Z,997.25
2023-01-15T09:07:44.552Z,997.24
2023-01-15T09:08:44.517Z,997.24
2023-01-15T09:09:44.516Z,997.24
2023-01-15T09:10:44.553Z,997.29
2023-01-15T09:11:45.210Z,997.26
2023-01-15T09:12:44.476Z,997.28
2023-01-15T09:13:44.600Z,997.31
2023-01-15T09:14:57.800Z,997.24
2023-01-15T09:15:45.439Z,997.27
2023-01-15T09:16:44.469Z,997.28
2023-01-15T09:17:44.436Z,997.28
2023-01-15T09:18:44.417Z,997.27
2023-01-15T09:19:44.419Z,997.30
2023-01-15T09:20:44.391Z,997.29
2023-01-15T09:21:44.377Z,997.20
2023-01-15T09:22:44.372Z,997.22
2023-01-15T09:23:44.365Z,997.18
2023-01-15T09:24:44.351Z,997.18
2023-01-15T09:25:44.339Z,997.24
2023-01-15T09:26:44.367Z,997.22
2023-01-15T09:27:44.393Z,997.23
2023-01-15T09:28:44.299Z,997.16
2023-01-15T09:29:44.323Z,997.16
2023-01-15T09:30:44.296Z,997.09
2023-01-15T09:31:44.269Z,997.08
2023-01-15T09:32:44.257Z,997.12
2023-01-15T09:33:44.255Z,997.05
2023-01-15T09:34:44.249Z,997.06
2023-01-15T09:35:44.229Z,997.04
2023-01-15T09:36:44.210Z,997.08
2023-01-15T09:37:44.220Z,997.12
2023-01-15T09:38:44.190Z,997.14
2023-01-15T09:39:44.195Z,997.14
2023-01-15T09:40:44.177Z,997.11
2023-01-15T09:41:44.163Z,997.14
2023-01-15T09:42:44.149Z,997.17
2023-01-15T09:43:50.413Z,997.17
2023-01-15T09:44:45.143Z,997.09
2023-01-15T09:45:44.170Z,997.14
2023-01-15T09:46:44.110Z,997.11
2023-01-15T09:47:44.116Z,997.13
2023-01-15T09:48:44.083Z,997.13
2023-01-15T09:49:44.092Z,997.14
2023-01-15T09:50:44.061Z,997.10
2023-01-15T09:51:44.052Z,997.07
2023-01-15T09:52:44.042Z,997.07
2023-01-15T09:53:44.030Z,997.09
2023-01-15T09:54:44.042Z,997.07
2023-01-15T09:55:44.016Z,997.06
2023-01-15T09:56:44.001Z,997.09
2023-01-15T09:57:43.982Z,997.12
2023-01-15T09:58:43.976Z,997.11
2023-01-15T09:59:43.983Z,997.09
2023-01-15T10:00:43.956Z,997.11
2023-01-15T10:01:43.948Z,997.03
2023-01-15T10:02:43.944Z,997.07
2023-01-15T10:03:43.938Z,997.05
2023-01-15T10:04:43.924Z,997.06
2023-01-15T10:05:43.910Z,997.07
2023-01-15T10:06:43.882Z,997.05
2023-01-15T10:07:43.887Z,997.05
2023-01-15T10:08:43.872Z,997.07
2023-01-15T10:09:43.877Z,997.13
2023-01-15T10:10:43.845Z,997.06
2023-01-15T10:11:43.861Z,997.11
2023-01-15T10:12:43.815Z,997.22
2023-01-15T10:13:43.813Z,997.22
2023-01-15T10:14:43.805Z,997.18
2023-01-15T10:15:43.801Z,997.09
2023-01-15T10:16:43.774Z,997.20
2023-01-15T10:17:43.803Z,997.14
2023-01-15T10:18:43.765Z,997.09
2023-01-15T10:19:44.790Z,997.10
2023-01-15T10:20:43.734Z,997.11
2023-01-15T10:21:43.724Z,997.05
2023-01-15T10:22:43.763Z,997.13
2023-01-15T10:23:43.719Z,997.15
2023-01-15T10:24:43.695Z,997.12
2023-01-15T10:25:43.685Z,997.23
2023-01-15T10:26:43.668Z,997.12
2023-01-15T10:27:43.657Z,997.20
2023-01-15T10:28:43.650Z,997.40
2023-01-15T10:29:43.658Z,997.23
2023-01-15T10:30:43.655Z,997.15
2023-01-15T10:31:43.618Z,997.23
2023-01-15T10:32:56.855Z,997.31
2023-01-15T10:33:44.590Z,997.55
2023-01-15T10:34:43.609Z,997.43
2023-01-15T10:35:43.567Z,997.34
2023-01-15T10:36:43.561Z,997.31
2023-01-15T10:37:43.548Z,997.28
2023-01-15T10:38:43.557Z,997.31
2023-01-15T10:39:43.530Z,997.19
2023-01-15T10:40:43.533Z,997.23
2023-01-15T10:41:43.513Z,997.27
2023-01-15T10:42:43.492Z,997.21
2023-01-15T10:43:43.486Z,997.32
2023-01-15T10:44:43.483Z,997.16
2023-01-15T10:45:43.463Z,997.22
2023-01-15T10:46:43.462Z,997.18
2023-01-15T10:47:43.442Z,997.21
2023-01-15T10:48:43.432Z,997.18
2023-01-15T10:49:43.485Z,997.12
2023-01-15T10:50:43.415Z,997.19
2023-01-15T10:51:43.421Z,997.22
2023-01-15T10:52:44.803Z,997.18
2023-01-15T10:53:43.374Z,997.16
2023-01-15T10:54:43.374Z,997.19
2023-01-15T10:55:43.343Z,997.18
2023-01-15T10:56:43.350Z,997.13
2023-01-15T10:57:43.331Z,997.07
2023-01-15T10:58:45.400Z,997.17
2023-01-15T10:59:43.329Z,997.14
2023-01-15T11:00:43.311Z,997.13
2023-01-15T11:01:43.390Z,997.09
2023-01-15T11:02:43.461Z,996.97
2023-01-15T11:03:43.283Z,997.13
2023-01-15T11:04:45.622Z,997.16
2023-01-15T11:05:43.257Z,997.13
2023-01-15T11:06:43.232Z,997.03
2023-01-15T11:08:03.214Z,997.05
2023-01-15T11:09:44.310Z,997.18
2023-01-15T11:10:43.200Z,997.14
2023-01-15T11:11:43.169Z,997.04
2023-01-15T11:12:43.160Z,997.11
2023-01-15T11:13:43.160Z,997.18
2023-01-15T11:14:43.151Z,997.10
2023-01-15T11:15:43.288Z,996.86
2023-01-15T11:16:44.256Z,996.94
2023-01-15T11:17:43.149Z,997.16
2023-01-15T11:18:43.092Z,997.26
2023-01-15T11:19:43.092Z,997.03
2023-01-15T11:20:43.101Z,997.10
2023-01-15T11:21:43.075Z,997.13
2023-01-15T11:22:44.893Z,997.06
2023-01-15T11:23:43.090Z,997.09
2023-01-15T11:24:43.023Z,997.08
2023-01-15T11:25:43.024Z,997.06
2023-01-15T11:26:43.015Z,997.02
2023-01-15T11:27:42.988Z,996.96
2023-01-15T11:28:42.991Z,997.01
2023-01-15T11:29:42.975Z,996.91
2023-01-15T11:30:43.045Z,996.98
2023-01-15T11:31:42.947Z,997.01
2023-01-15T11:32:42.937Z,997.06
2023-01-15T11:33:42.938Z,997.01
2023-01-15T11:34:42.927Z,997.14
2023-01-15T11:35:42.931Z,996.86
2023-01-15T11:36:42.898Z,996.97
2023-01-15T11:37:42.905Z,997.15
2023-01-15T11:38:42.882Z,997.16
2023-01-15T11:39:42.859Z,996.91
2023-01-15T11:40:42.870Z,996.93
2023-01-15T11:41:42.845Z,996.92
2023-01-15T11:42:42.838Z,996.99
2023-01-15T11:43:42.824Z,996.91
2023-01-15T11:44:42.817Z,997.03
2023-01-15T11:45:42.804Z,996.98
2023-01-15T11:46:42.825Z,996.87
2023-01-15T11:47:44.876Z,996.70
2023-01-15T11:48:42.763Z,996.82
2023-01-15T11:49:42.753Z,996.76
2023-01-15T11:50:42.757Z,996.77
2023-01-15T11:51:42.729Z,996.85
2023-01-15T11:52:42.738Z,996.85
2023-01-15T11:53:42.763Z,996.91
2023-01-15T11:54:42.697Z,996.74
2023-01-15T11:55:42.704Z,996.81
2023-01-15T11:56:42.675Z,996.72
2023-01-15T11:57:42.665Z,996.93
2023-01-15T11:58:42.661Z,996.86
2023-01-15T11:59:42.646Z,996.90
2023-01-15T12:00:42.644Z,996.75
2023-01-15T12:01:42.630Z,996.85
2023-01-15T12:02:42.607Z,996.71
2023-01-15T12:03:42.691Z,996.67
2023-01-15T12:04:45.344Z,996.92
2023-01-15T12:05:42.760Z,996.82
2023-01-15T12:06:42.569Z,996.92
2023-01-15T12:07:42.570Z,996.70
2023-01-15T12:08:42.552Z,996.75
2023-01-15T12:09:42.529Z,996.79
2023-01-15T12:10:42.551Z,996.66
2023-01-15T12:11:42.525Z,996.62
2023-01-15T12:12:42.500Z,996.57
2023-01-15T12:13:42.480Z,996.50
2023-01-15T12:14:42.488Z,996.53
2023-01-15T12:15:42.512Z,996.45
2023-01-15T12:16:42.463Z,996.58
2023-01-15T12:17:42.453Z,996.52
2023-01-15T12:18:42.445Z,996.42
2023-01-15T12:19:42.420Z,996.46
2023-01-15T12:20:42.441Z,996.45
2023-01-15T12:21:42.413Z,996.37
2023-01-15T12:22:42.397Z,996.42
2023-01-15T12:23:42.380Z,996.25
2023-01-15T12:24:42.364Z,996.19
2023-01-15T12:25:42.376Z,996.23
2023-01-15T12:26:42.347Z,996.20
2023-01-15T12:27:42.343Z,996.25
2023-01-15T12:28:42.328Z,996.08
2023-01-15T12:29:42.327Z,996.19